Weather observations for the past three days for
Granite Falls, Granite Falls Municipal Airport/Lenzen-Roe Memorial Field
Metric (Imperial)
Date Time (cdt) Wind (kph) Vis. (km) Weather Sky Cond. Temperature (ºC) Relative Humidity Wind Chill (°C) Heat Index (°C) Pressure Precipitation (cm)
Air Dwpt 6 hour altimeter (cm) sea level (mb) 1 hr 3 hr 6 hr
Max. Min.
02 14:15 W 26 G 35 16.09 Partly Cloudy SCT085 21.3 -3.4 19% 76.07 0.0
02 13:55 SW 20 G 41 16.09 Partly Cloudy SCT085 21.1 -3 20% 76.12 0.0
02 13:35 W 26 G 46 16.09 Fair CLR 21.2 -2.8 20% 76.15 0.0
02 13:15 W 33 G 43 16.09 Fair and Breezy CLR 20.7 -2.2 21% 76.15 0.0
02 12:55 W 17 G 39 16.09 Fair CLR 20.3 -2.5 20.4 3.4 21% 76.17 0.0
02 12:35 SW 24 G 37 16.09 Fair CLR 19.5 -2.5 23% 76.2 0.0
02 12:15 SW 22 G 33 16.09 Fair CLR 18.9 -2 24% 76.23 0.0
02 11:55 SW 22 G 30 16.09 Fair CLR 18.2 -2.6 24% 76.28 0.0
02 11:35 SW 22 G 28 16.09 Fair CLR 17.7 -2.8 25% 76.28 0.0
02 11:15 SW 19 G 31 16.09 Fair CLR 17.2 -2.4 26% 76.3 0.0
02 10:55 SW 20 G 26 16.09 Fair CLR 16.2 -2.5 28% 76.35 0.0
02 10:35 SW 17 16.09 Fair CLR 15.4 -2.8 29% 76.35 0.0
02 10:15 SW 19 16.09 Fair CLR 14.9 -2.5 30% 76.38 0.0
02 09:55 SW 22 G 28 16.09 Fair CLR 14 -2.2 33% 76.4 0.0
02 09:35 SW 20 G 28 16.09 Fair CLR 12.9 -2.1 36% 76.4 0.0
02 09:15 SW 22 16.09 Fair CLR 11.7 -2 39% 76.43 0.0
02 08:55 SW 19 G 26 16.09 Fair CLR 10.5 -1.7 43% 76.43 0.0
02 08:35 SW 13 16.09 Fair CLR 8.9 -1 50% 7 76.45 0.0
02 08:15 SW 15 16.09 Partly Cloudy SCT095 7.6 -1.6 52% 5 76.45 0.0
02 07:55 SW 11 16.09 Partly Cloudy SCT095 6 -1.4 59% 4 76.45 0.0
02 07:35 S 13 16.09 Partly Cloudy SCT095 5 -1.7 62% 2 76.45 0.0
02 07:15 S 11 16.09 Partly Cloudy SCT090 3.6 -2 67% 1 76.45 0.0
02 06:55 SW 11 16.09 Partly Cloudy SCT090 3 -2.7 3 -0.3 67% 0 76.48 0.0
02 06:35 SW 13 16.09 Fair CLR 2.8 -3.1 66% -0 76.48 0.0
02 06:15 SW 11 16.09 Fair CLR 1 -3.2 74% -2 76.48 0.0
02 05:55 SW 9 16.09 Fair CLR 0.1 -3.4 78% -3 76.48 0.0
02 05:35 SW 9 16.09 Fair CLR 1.5 -3.5 70% -1 76.48 0.0
02 05:15 SW 11 16.09 Fair CLR 1.1 -3.5 72% -2 76.48 0.0
02 04:55 SW 9 16.09 Fair CLR 1.1 -3.5 72% -1 76.48 0.0
02 04:35 SW 9 16.09 Fair CLR 0.7 -3.5 74% -2 76.5 0.0
02 04:15 SW 9 16.09 Fair CLR 1.5 -3.1 72% -1 76.5 0.0
02 03:55 SW 9 16.09 Fair CLR 1.5 -3.2 71% -1 76.48 0.0
02 03:35 SW 9 16.09 Fair CLR 1.5 -3.3 71% -1 76.48 0.0
02 03:15 SW 11 16.09 Fair CLR 1.2 -3 74% -2 76.48 0.0
02 02:55 SW 9 16.09 Fair CLR 0 -3.6 77% -3 76.48 0.0
02 02:35 SW 7 16.09 Fair CLR 1.5 -3.4 70% -0 76.48 0.0
02 02:15 W 9 16.09 Fair CLR 0.9 -3.2 74% -2 76.5 0.0
02 01:55 SW 13 16.09 Fair CLR 1.9 -3 70% -1 76.53 0.0
02 01:35 W 9 16.09 Fair CLR 1.5 -3.2 71% -1 76.53 0.0
02 01:15 W 7 16.09 Fair CLR 1.5 -3.1 72% -0 76.53 0.0
02 00:55 W 6 16.09 Fair CLR 1.4 -3 12.5 1.3 73% 76.53 0.0
02 00:35 W 7 16.09 Fair CLR 1.6 -2.8 73% -0 76.53 0.0
02 00:15 W 9 16.09 Fair CLR 2.5 -2.6 69% 0 76.53 0.0
01 23:55 W 9 16.09 Fair CLR 2.5 -2.7 69% 0 76.53 0.0
01 23:35 W 7 16.09 Fair CLR 3 -2.6 67% 1 76.53 0.0
01 23:15 W 9 16.09 Fair CLR 3 -2.8 66% 1 76.53 0.0
01 22:55 W 7 16.09 Fair CLR 3.5 -2.9 63% 2 76.53 0.0
01 22:35 W 9 16.09 Fair CLR 5 -3 57% 3 76.56 0.0
01 22:15 W 7 16.09 Fair CLR 5.1 -3.1 56% 4 76.53 0.0
01 21:55 W 11 16.09 Fair CLR 5.6 -3.2 54% 3 76.53 0.0
01 21:35 W 9 16.09 Fair CLR 6.4 -3.3 50% 5 76.53 0.0
01 21:15 W 11 16.09 Fair CLR 7 -4 46% 5 76.53 0.0
01 20:55 NW 11 16.09 Fair CLR 7.7 -4 44% 6 76.5 0.0
01 20:35 NW 9 16.09 Fair CLR 9.4 -3.5 40% 8 76.48 0.0
01 20:15 NW 11 16.09 Fair CLR 10.3 -4.4 36% 76.48 0.0
01 19:55 NW 11 16.09 Fair CLR 11.2 -6.2 29% 76.48 0.0
01 19:35 NW 11 16.09 Partly Cloudy SCT070 11.6 -5.9 29% 76.45 0.0
01 19:15 NW 15 16.09 Fair CLR 11.6 -5.5 30% 76.45 0.0
01 18:55 N 11 16.09 Fair CLR 12.5 -6.5 13.4 9.8 26% 76.45 0.0
01 18:35 NW 11 16.09 Fair CLR 12.5 -6.7 26% 76.45 0.0
01 18:15 NW 7 16.09 Partly Cloudy SCT070 11.6 -6.5 28% 76.48 0.0
01 17:55 NW 19 16.09 Partly Cloudy SCT070 13.1 -5.7 27% 76.45 0.0
01 17:35 N 13 16.09 Partly Cloudy SCT070 12.8 -5.9 27% 76.45 0.0
01 17:15 N 11 16.09 Partly Cloudy SCT070 11.1 -5.4 31% 76.48 0.0
01 16:55 NE 7 16.09 Mostly Cloudy BKN070 11.3 -5.9 30% 76.48 0.0
01 16:35 W 13 G 30 16.09 Mostly Cloudy BKN070 13.2 -4.6 29% 76.48 0.0
01 16:15 W 11 16.09 Partly Cloudy SCT070 13 -4.2 30% 76.48 0.0
01 15:55 NW 15 16.09 Fair CLR 12.3 -4 32% 76.5 0.0
01 15:35 N 13 16.09 Partly Cloudy SCT060 10.9 -3.6 36% 76.53 0.0
01 15:15 N 7 16.09 Mostly Cloudy BKN060 10.3 -4 37% 76.53 0.0
01 14:55 N 11 16.09 Mostly Cloudy BKN060 BKN070 11.9 -2 38% 76.53 0.0
01 14:35 N 13 16.09 Overcast OVC050 10.3 -3.2 39% 76.56 0.0
01 14:15 NW 15 G 26 16.09 Overcast OVC050 10.1 -3.1 40% 76.56 0.0
01 13:55 N 15 G 26 16.09 Mostly Cloudy BKN050 10.8 -4 35% 76.56 0.0
01 13:35 N 19 G 28 16.09 Mostly Cloudy BKN050 10.8 -2.1 41% 76.56 0.0
01 13:15 NW 19 G 28 16.09 Mostly Cloudy BKN050 10.3 -1.8 43% 76.56 0.0
01 12:55 N 13 G 26 16.09 Mostly Cloudy BKN050 10 -2.5 10 0.6 42% 8 76.56 0.0
01 12:35 N 19 G 26 16.09 Overcast OVC050 9.5 -2.9 42% 7 76.56 0.0
01 12:15 NW 20 16.09 Overcast OVC050 9.5 -2.7 43% 7 76.56 0.0
01 11:55 N 19 16.09 Mostly Cloudy BKN050 8.8 -2.7 45% 6 76.58 0.0
01 11:35 N 11 G 26 16.09 Partly Cloudy SCT048 9 -2.6 44% 8 76.58 0.0
01 11:15 N 11 16.09 Fair CLR 8.5 -0.7 53% 7 76.56 0.0
01 10:55 N 11 16.09 Fair CLR 8.2 0 57% 7 76.56 0.0
01 10:35 N 9 16.09 Partly Cloudy SCT055 7.4 -0.1 59% 6 76.56 0.0
01 10:15 N 9 16.09 Mostly Cloudy BKN055 7 0.1 62% 5 76.56 0.0
01 09:55 N 9 16.09 Mostly Cloudy BKN055 5.7 -0.1 67% 4 76.56 0.0
01 09:35 NW 9 16.09 Mostly Cloudy BKN055 5.3 0 69% 3 76.56 0.0
01 09:15 NW 9 16.09 Partly Cloudy SCT055 5.1 -0.1 69% 3 76.56 0.0
01 08:55 N 9 16.09 Fair CLR 4.6 -0.3 71% 3 76.56 0.0
01 08:35 NW 11 16.09 Fair CLR 3.7 -0.3 75% 1 76.53 0.0
01 08:15 NW 15 16.09 Fair CLR 2.8 -0.5 79% -1 76.53 0.0
01 07:55 NW 19 16.09 Fair CLR 2 -1.1 80% -2 76.53 0.0
01 07:35 NW 17 16.09 Fair CLR 1.5 -1.3 82% -2 76.5 0.0
01 07:15 NW 15 16.09 Fair CLR 1.1 -1.5 83% -3 76.48 0.0
01 06:55 NW 15 16.09 Fair CLR 0.5 -1.7 5.5 0.3 85% -3 76.48 0.0
01 06:35 NW 13 16.09 Fair CLR 0.4 -1.7 86% -3 76.45 0.0
01 06:15 NW 15 16.09 Fair CLR 0.6 -1.6 85% -3 76.43 0.0
01 05:55 NW 13 16.09 Fair CLR 0.8 -1.6 84% -3 76.43 0.0
01 05:35 NW 13 16.09 Fair CLR 1.1 -1.6 82% -2 76.43 0.0
01 05:15 NW 13 16.09 Partly Cloudy SCT065 1.5 -1.6 80% -2 76.43 0.0
01 04:55 NW 9 16.09 Mostly Cloudy BKN065 2 -1.3 79% -0 76.43 0.0
01 04:35 NW 7 16.09 Mostly Cloudy BKN065 3 -1.2 74% 1 76.4 0.0
01 04:15 NW 11 16.09 Overcast OVC065 3.5 -0.9 73% 1 76.4 0.0
01 03:55 NW 11 16.09 Overcast OVC065 3.8 -0.5 74% 1 76.4 0.0
01 03:35 NW 13 16.09 Mostly Cloudy BKN050 BKN070 3.6 -0.6 74% 1 76.4 0.0
01 03:15 N 15 16.09 Fair CLR 3.2 -0.7 76% -0 76.38 0.0
01 02:55 N 15 16.09 Fair CLR 3.6 -0.5 75% 0 76.38 0.0
01 02:35 N 17 16.09 Partly Cloudy SCT055 SCT075 4.5 0 73% 1 76.38 0.0
01 02:15 N 17 16.09 Mostly Cloudy BKN065 BKN075 5.1 0.1 70% 2 76.4 0.0
01 01:55 N 17 16.09 Overcast OVC060 5.5 0.9 73% 2 76.4 0.0
01 01:35 NW 11 16.09 Overcast BKN050 BKN060 OVC075 5 2.7 85% 3 76.38 0.0
01 01:15 W 11 16.09 Overcast BKN050 OVC085 4.6 3.2 91% 2 76.38 0.0
01 00:55 W 9 16.09 Overcast SCT050 OVC085 4.7 3.5 8.4 4.5 92% 3 76.38 0.0
01 00:35 W 6 16.09 Overcast SCT048 SCT060 OVC085 4.7 3.7 93% 76.38 0.0
01 00:15 W 6 11.27 Overcast OVC075 4.5 3.5 93% 76.38 0.0
30 23:55 W 7 16.09 Overcast SCT065 BKN075 OVC090 4.6 3.6 93% 3 76.38 0.0
30 23:35 W 6 16.09 Overcast BKN080 OVC100 4.5 3.3 92% 76.38 0.0
30 23:15 Calm 16.09 Overcast BKN080 OVC100 4.9 3.5 91% 76.38 0.0
30 22:55 Calm 16.09 Overcast SCT038 BKN080 OVC110 5.6 3.6 87% 76.38 0.0
30 22:35 Calm 16.09 Overcast SCT038 BKN080 OVC110 5.7 4 89% 76.38 0.0
30 22:15 Calm 16.09 Mostly Cloudy BKN090 5.6 3.5 87% 76.35 0.0
30 21:55 Calm 16.09 Light Drizzle SCT080 OVC090 6 3.6 85% 76.35 0.0
30 21:35 SW 7 16.09 Light Rain SCT031 BKN050 OVC080 6.5 3.3 80% 5 76.35 0.0
30 21:15 Calm 16.09 Light Rain BKN037 OVC048 6.5 3.4 81% 76.35 0.0
30 20:55 Calm 16.09 Light Rain SCT032 BKN042 OVC090 6.5 3 79% 76.33 0.0
30 20:35 Calm 16.09 Mostly Cloudy BKN080 6.5 3 79% 76.33 0.0
30 20:15 NE 7 16.09 Mostly Cloudy SCT012 BKN080 6.4 3.1 80% 5 76.33 0.0
30 19:55 NE 17 16.09 Partly Cloudy SCT012 6.7 2.9 77% 4 76.3 0.0
30 19:35 NE 13 16.09 Partly Cloudy SCT055 SCT075 8 4 76% 6 76.3 0.0
30 19:15 NE 9 16.09 Overcast BKN055 BKN065 OVC085 8.1 4.1 76% 7 76.3 0.0
30 18:55 N 9 16.09 Mostly Cloudy SCT044 SCT060 BKN075 8.3 4 13.3 7.8 75% 7 76.3 0.0 0.03 0.03
30 18:35 NW 17 16.09 Light Rain SCT025 BKN042 OVC055 8 4.1 77% 6 76.35 0.0 0.03
30 18:15 NW 15 16.09 Light Rain SCT031 BKN040 OVC055 9 2.8 65% 7 76.35 0.0
30 17:55 NE 17 16.09 Overcast BKN060 OVC070 9 2.1 62% 7 76.28 0.0
30 17:35 NE 15 16.09 Overcast BKN050 OVC070 9.1 1.6 60% 7 76.28 0.0
30 17:15 NE 19 G 28 16.09 Mostly Cloudy BKN048 BKN060 BKN075 10.6 0.9 51% 76.28 0.0
30 16:55 W 20 G 26 16.09 Mostly Cloudy BKN050 BKN065 BKN080 13.3 0 40% 76.3 0.0
30 16:35 W 30 16.09 Partly Cloudy SCT050 SCT075 11.5 -1.1 42% 76.33 0.0
30 16:15 W 9 16.09 Mostly Cloudy SCT031 SCT039 BKN080 11.8 0.1 45% 76.35 0.0
30 15:55 W 22 G 43 16.09 Mostly Cloudy SCT037 SCT045 BKN055 10.2 0.3 51% 76.38 0.0
30 15:35 W 24 G 39 16.09 Mostly Cloudy BKN060 BKN070 12.2 -2.1 37% 76.38 0.0
30 15:15 NW 17 G 28 16.09 Partly Cloudy SCT050 SCT070 SCT080 12.9 -2.5 34% 76.38 0.0
30 14:55 W 6 16.09 Partly Cloudy SCT050 SCT075 SCT080 12.3 -1.8 38% 76.4 0.0
30 14:35 N 15 G 26 16.09 Mostly Cloudy SCT050 BKN075 BKN085 10.9 -2.6 39% 76.43 0.0
30 14:15 NW 17 G 30 16.09 Mostly Cloudy SCT050 BKN080 11.6 -1.6 40% 76.43 0.0
30 13:55 NW 17 16.09 Mostly Cloudy SCT050 BKN070 BKN085 11.1 -1.7 41% 76.45 0.0
30 13:35 NW 20 G 30 16.09 Overcast BKN070 OVC085 10 -2.1 43% 8 76.48 0.0
30 13:15 NW 17 G 26 16.09 Mostly Cloudy SCT070 BKN085 9.9 -1.9 44% 8 76.5 0.0
30 12:55 NW 22 G 28 16.09 Partly Cloudy SCT060 SCT085 10.6 -1.7 10.6 1.1 43% 76.53 0.0
30 12:35 NW 17 16.09 Mostly Cloudy SCT070 BKN085 9.1 -2.5 44% 7 76.53 0.0
30 12:15 NW 13 16.09 Mostly Cloudy BKN070 BKN085 8.5 -2 48% 7 76.56 0.0
30 11:55 NW 15 16.09 Overcast BKN070 OVC085 8.3 -2.3 48% 6 76.56 0.0
30 11:35 N 19 G 26 16.09 Mostly Cloudy SCT070 BKN085 8.9 -1.1 50% 6 76.58 0.0
30 11:15 N 15 16.09 Mostly Cloudy BKN070 8.2 -1.8 50% 6 76.58 0.0
30 10:55 NW 19 16.09 Overcast OVC070 7.2 -2.2 52% 4 76.58 0.0
30 10:35 N 15 16.09 Mostly Cloudy BKN060 7.2 -2.1 52% 5 76.56 0.0
30 10:15 N 19 G 26 16.09 Fair CLR 6.8 -2.3 53% 4 76.58 0.0
30 09:55 N 17 16.09 Partly Cloudy SCT080 5.7 -3 54% 3 76.56 0.0
30 09:35 N 19 16.09 Fair CLR 5.9 -2.7 54% 3 76.56 0.0
30 09:15 N 17 16.09 Fair CLR 5.3 -2.5 58% 2 76.56 0.0
30 08:55 NW 15 16.09 Fair CLR 4.5 -2.6 60% 2 76.56 0.0
30 08:35 N 19 16.09 Fair CLR 4.5 -2.8 59% 1 76.58 0.0
30 08:15 N 15 16.09 Fair CLR 3.7 -2.8 63% 1 76.56 0.0
30 07:55 NW 13 16.09 Fair CLR 3.5 -1.9 68% 1 76.56 0.0
30 07:35 NW 9 16.09 Fair CLR 2.7 -1.8 73% 0 76.56 0.0
30 07:15 NW 11 16.09 Fair CLR 1.7 -1.8 78% -1 76.56 0.0
30 06:55 NW 11 16.09 Fair CLR 1.1 -2.2 6.7 0.9 79% -2 76.56 0.0
30 06:35 NW 9 16.09 Fair CLR 1.4 -2.4 76% -1 76.53 0.0
30 06:15 NW 7 16.09 Fair CLR 1.5 -2.4 76% -0 76.53 0.0
30 05:55 NW 9 16.09 Fair CLR 1.9 -2.3 74% -1 76.53 0.0
30 05:35 NW 11 16.09 Fair CLR 2.5 -2.1 72% -0 76.53 0.0
30 05:15 NW 11 16.09 Fair CLR 2.5 -2 73% -0 76.53 0.0
30 04:55 NW 9 16.09 Fair CLR 2.5 -1.3 76% 0 76.53 0.0
30 04:35 NW 11 16.09 Partly Cloudy SCT075 2.7 -1 77% 0 76.53 0.0
30 04:15 NW 9 16.09 Partly Cloudy SCT085 3.5 -0.9 73% 1 76.53 0.0
30 03:55 NW 7 16.09 Mostly Cloudy SCT060 SCT070 BKN085 4 -0.8 71% 2 76.53 0.0
30 03:35 NW 7 16.09 Overcast BKN060 OVC085 4.7 -1.3 65% 3 76.53 0.0
30 03:15 NW 7 16.09 Overcast OVC060 5.5 -1.2 62% 4 76.5 0.0
30 02:55 N 7 16.09 Overcast BKN060 OVC095 5.5 -0.5 66% 4 76.53 0.0
30 02:35 N 9 16.09 Overcast BKN060 OVC090 5.6 -1.3 62% 4 76.53 0.0
30 02:15 N 13 16.09 Overcast BKN060 BKN070 OVC085 6 -1.1 61% 4 76.53 0.0
30 01:55 NW 6 16.09 Overcast BKN050 BKN070 OVC085 6 0 66% 76.53 0.0
30 01:35 N 6 16.09 Overcast OVC050 6.5 -0.2 63% 76.53 0.0
30 01:15 N 19 16.09 Overcast OVC050 6.5 -0.2 63% 3 76.53 0.0
30 00:55 N 17 16.09 Light Rain OVC050 7 -1 13.5 7 57% 4 76.5 0.0
30 00:35 N 15 16.09 Overcast OVC048 7.9 -1.3 53% 6 76.48 0.0
30 00:15 N 15 16.09 Overcast SCT050 BKN065 OVC090 8.1 -0.9 53% 6 76.45 0.0
29 23:55 N 15 16.09 Overcast SCT060 OVC085 8.5 -0.9 52% 6 76.45 0.0
29 23:35 N 17 16.09 Overcast SCT060 BKN075 OVC095 8.8 -0.4 53% 7 76.43 0.0
29 23:15 N 15 16.09 Overcast OVC085 9 0 54% 7 76.43 0.0
29 22:55 N 11 16.09 Overcast OVC085 9.4 0 52% 8 76.43 0.0
29 22:35 N 11 16.09 Overcast OVC085 9.5 0.3 53% 8 76.43 0.0
29 22:15 N 7 16.09 Overcast SCT070 OVC085 9.5 0.5 54% 9 76.4 0.0
29 21:55 N 11 16.09 Overcast SCT070 OVC085 9.7 0.9 55% 8 76.4 0.0
29 21:35 N 7 16.09 Overcast BKN070 BKN085 OVC120 10.3 0.6 51% 76.38 0.0
29 21:15 N 13 16.09 Mostly Cloudy SCT070 SCT085 BKN120 10 0.4 52% 8 76.35 0.0
29 20:55 N 11 16.09 Overcast SCT070 OVC110 10.5 0.2 49% 76.33 0.0
29 20:35 N 11 16.09 Overcast BKN070 BKN080 OVC110 11.3 0.5 48% 76.3 0.0
29 20:15 NE 13 16.09 Overcast BKN070 OVC085 12 0.1 44% 76.3 0.0
29 19:55 NW 6 16.09 Overcast BKN070 OVC090 12.5 0.3 43% 76.28 0.0
29 19:35 N 9 16.09 Overcast SCT070 BKN085 OVC090 12.8 -0.9 39% 76.28 0.0
29 19:15 W 9 16.09 Overcast SCT060 BKN070 OVC080 13.5 -1.6 35% 76.28 0.0
29 18:55 W 11 16.09 Partly Cloudy SCT080 13.8 -1.5 15 12.8 35% 76.28 0.0
29 18:35 NW 7 16.09 Fair CLR 14.2 -1.5 34% 76.28 0.0
29 18:15 NW 9 16.09 Fair CLR 14.2 -1.3 35% 76.28 0.0
29 17:55 Calm 16.09 Partly Cloudy SCT100 SCT120 13.5 -1.1 37% 76.28 0.0
29 17:35 NW 9 16.09 Mostly Cloudy SCT090 BKN110 13.9 -0.8 37% 76.3 0.0
29 17:15 NW 15 16.09 Mostly Cloudy BKN090 BKN100 12.9 -1.1 38% 76.3 0.0
29 16:55 N 17 16.09 Overcast SCT075 OVC090 13.1 -1.2 37% 76.3 0.0
29 16:35 NW 15 16.09 Mostly Cloudy SCT070 BKN090 13 -1.7 36% 76.33 0.0
29 16:15 NW 9 16.09 Mostly Cloudy BKN060 BKN090 13.3 -1.5 36% 76.33 0.0
29 15:55 NW 9 16.09 Overcast OVC065 13.3 -2.1 35% 76.35 0.0
29 15:35 W 13 16.09 Mostly Cloudy BKN065 BKN080 BKN100 13.5 -1.7 35% 76.35 0.0
29 15:15 W 11 G 17 16.09 Mostly Cloudy SCT050 BKN070 BKN075 13.5 -2.8 32% 76.35 0.0
29 14:55 W 17 G 31 16.09 Mostly Cloudy SCT050 SCT060 BKN080 13.7 -1.7 35% 76.35 0.0
29 14:35 NW 11 G 26 16.09 Mostly Cloudy BKN070 BKN090 14 -2.6 32% 76.35 0.0
Date Time (cdt) Wind (kph) Vis. (km) Weather Sky Cond. Air Dwpt Max. Min. Relative Humidity Wind Chill (°C) Heat Index (°C) altimeter (cm) sea level (mb) 1 hr 3 hr 6 hr
6 hour
Temperature (ºC) Pressure Precipitation (cm)